sensor_id;sensor_type;location;lat;lon;timestamp;pressure;altitude;pressure_sealevel;temperature;humidity
51759;BME280;66684;47.568;18.734;2023-05-24T00:00:40;99237.72;;;15.91;100.00
51759;BME280;66684;47.568;18.734;2023-05-24T00:03:07;99235.28;;;16.03;100.00
51759;BME280;66684;47.568;18.734;2023-05-24T00:05:33;99240.34;;;15.96;100.00
51759;BME280;66684;47.568;18.734;2023-05-24T00:08:02;99235.44;;;15.56;100.00
51759;BME280;66684;47.568;18.734;2023-05-24T00:10:28;99238.84;;;15.52;100.00
51759;BME280;66684;47.568;18.734;2023-05-24T00:12:54;99234.81;;;15.15;100.00
51759;BME280;66684;47.568;18.734;2023-05-24T00:15:20;99234.19;;;15.30;100.00
51759;BME280;66684;47.568;18.734;2023-05-24T00:17:46;99229.06;;;15.36;100.00
51759;BME280;66684;47.568;18.734;2023-05-24T00:20:12;99228.88;;;15.24;100.00
51759;BME280;66684;47.568;18.734;2023-05-24T00:22:39;99228.00;;;15.23;100.00
51759;BME280;66684;47.568;18.734;2023-05-24T00:25:06;99230.09;;;14.91;100.00
51759;BME280;66684;47.568;18.734;2023-05-24T00:27:32;99231.16;;;15.02;100.00
51759;BME280;66684;47.568;18.734;2023-05-24T00:29:58;99225.13;;;15.06;100.00
51759;BME280;66684;47.568;18.734;2023-05-24T00:32:24;99224.03;;;14.92;100.00
51759;BME280;66684;47.568;18.734;2023-05-24T00:34:50;99224.00;;;14.91;100.00
51759;BME280;66684;47.568;18.734;2023-05-24T00:37:16;99225.84;;;14.98;100.00
51759;BME280;66684;47.568;18.734;2023-05-24T00:39:42;99217.66;;;14.75;100.00
51759;BME280;66684;47.568;18.734;2023-05-24T00:42:08;99215.91;;;14.74;100.00
51759;BME280;66684;47.568;18.734;2023-05-24T00:44:34;99222.91;;;14.78;100.00
51759;BME280;66684;47.568;18.734;2023-05-24T00:47:00;99218.38;;;14.66;100.00
51759;BME280;66684;47.568;18.734;2023-05-24T00:49:26;99220.34;;;14.81;100.00
51759;BME280;66684;47.568;18.734;2023-05-24T00:51:53;99218.72;;;14.88;100.00
51759;BME280;66684;47.568;18.734;2023-05-24T00:54:19;99218.03;;;14.96;100.00
51759;BME280;66684;47.568;18.734;2023-05-24T00:56:46;99221.63;;;15.04;100.00
51759;BME280;66684;47.568;18.734;2023-05-24T00:59:13;99215.56;;;15.04;100.00
51759;BME280;66684;47.568;18.734;2023-05-24T01:01:39;99219.97;;;15.09;100.00
51759;BME280;66684;47.568;18.734;2023-05-24T01:04:06;99220.66;;;14.99;100.00
51759;BME280;66684;47.568;18.734;2023-05-24T01:06:45;99219.12;;;15.10;100.00
51759;BME280;66684;47.568;18.734;2023-05-24T01:17:43;99210.44;;;15.08;100.00
51759;BME280;66684;47.568;18.734;2023-05-24T01:20:14;99207.63;;;14.96;100.00
51759;BME280;66684;47.568;18.734;2023-05-24T01:28:21;99195.13;;;14.77;100.00
51759;BME280;66684;47.568;18.734;2023-05-24T01:30:47;99196.69;;;14.66;100.00
51759;BME280;66684;47.568;18.734;2023-05-24T01:33:13;99190.84;;;14.79;100.00
51759;BME280;66684;47.568;18.734;2023-05-24T01:35:39;99193.37;;;14.76;100.00
51759;BME280;66684;47.568;18.734;2023-05-24T01:38:07;99190.88;;;14.82;100.00
51759;BME280;66684;47.568;18.734;2023-05-24T01:40:35;99188.47;;;14.91;100.00
51759;BME280;66684;47.568;18.734;2023-05-24T01:43:03;99185.56;;;15.27;100.00
51759;BME280;66684;47.568;18.734;2023-05-24T01:45:42;99186.56;;;15.37;100.00
51759;BME280;66684;47.568;18.734;2023-05-24T01:50:57;99190.91;;;15.38;100.00
51759;BME280;66684;47.568;18.734;2023-05-24T01:53:25;99189.06;;;15.31;100.00
51759;BME280;66684;47.568;18.734;2023-05-24T01:55:57;99190.72;;;15.26;100.00
51759;BME280;66684;47.568;18.734;2023-05-24T01:58:25;99196.00;;;15.29;100.00
51759;BME280;66684;47.568;18.734;2023-05-24T02:00:53;99191.56;;;15.23;100.00
51759;BME280;66684;47.568;18.734;2023-05-24T02:03:19;99192.34;;;15.18;100.00
51759;BME280;66684;47.568;18.734;2023-05-24T02:05:45;99200.16;;;15.19;100.00
51759;BME280;66684;47.568;18.734;2023-05-24T02:08:12;99201.72;;;15.08;100.00
51759;BME280;66684;47.568;18.734;2023-05-24T02:10:41;99198.31;;;15.12;100.00
51759;BME280;66684;47.568;18.734;2023-05-24T02:13:07;99199.28;;;15.19;100.00
51759;BME280;66684;47.568;18.734;2023-05-24T02:15:34;99203.53;;;15.12;100.00
51759;BME280;66684;47.568;18.734;2023-05-24T02:18:00;99200.91;;;15.10;100.00
51759;BME280;66684;47.568;18.734;2023-05-24T02:20:27;99200.66;;;14.95;100.00
51759;BME280;66684;47.568;18.734;2023-05-24T02:22:56;99191.97;;;14.95;100.00
51759;BME280;66684;47.568;18.734;2023-05-24T02:25:22;99193.87;;;15.03;100.00
51759;BME280;66684;47.568;18.734;2023-05-24T02:27:48;99189.62;;;15.10;100.00
51759;BME280;66684;47.568;18.734;2023-05-24T02:30:14;99185.31;;;15.10;100.00
51759;BME280;66684;47.568;18.734;2023-05-24T02:32:40;99178.37;;;15.13;100.00
51759;BME280;66684;47.568;18.734;2023-05-24T02:35:06;99178.37;;;15.13;100.00
51759;BME280;66684;47.568;18.734;2023-05-24T02:37:32;99185.31;;;15.10;100.00
51759;BME280;66684;47.568;18.734;2023-05-24T02:39:58;99176.53;;;15.05;100.00
51759;BME280;66684;47.568;18.734;2023-05-24T02:42:24;99169.72;;;15.14;100.00
51759;BME280;66684;47.568;18.734;2023-05-24T02:44:50;99171.47;;;15.15;100.00
51759;BME280;66684;47.568;18.734;2023-05-24T02:47:17;99181.75;;;15.05;100.00
51759;BME280;66684;47.568;18.734;2023-05-24T02:49:43;99181.84;;;15.13;100.00
51759;BME280;66684;47.568;18.734;2023-05-24T02:52:09;99186.19;;;15.14;100.00
51759;BME280;66684;47.568;18.734;2023-05-24T02:54:35;99181.94;;;15.18;100.00
51759;BME280;66684;47.568;18.734;2023-05-24T02:57:02;99181.88;;;15.15;100.00
51759;BME280;66684;47.568;18.734;2023-05-24T02:59:28;99189.66;;;15.11;100.00
51759;BME280;66684;47.568;18.734;2023-05-24T03:01:53;99193.03;;;15.07;100.00
51759;BME280;66684;47.568;18.734;2023-05-24T03:04:19;99188.66;;;15.03;100.00
51759;BME280;66684;47.568;18.734;2023-05-24T03:06:45;99196.41;;;15.00;100.00
51759;BME280;66684;47.568;18.734;2023-05-24T03:09:11;99201.59;;;15.00;100.00
51759;BME280;66684;47.568;18.734;2023-05-24T03:11:38;99198.78;;;14.88;100.00
51759;BME280;66684;47.568;18.734;2023-05-24T03:14:03;99199.63;;;14.84;100.00
51759;BME280;66684;47.568;18.734;2023-05-24T03:16:30;99205.59;;;14.80;100.00
51759;BME280;66684;47.568;18.734;2023-05-24T03:18:57;99199.66;;;14.87;100.00
51759;BME280;66684;47.568;18.734;2023-05-24T03:21:24;99198.28;;;15.09;100.00
51759;BME280;66684;47.568;18.734;2023-05-24T03:23:50;99201.13;;;15.26;100.00
51759;BME280;66684;47.568;18.734;2023-05-24T03:26:16;99207.31;;;15.32;100.00
51759;BME280;66684;47.568;18.734;2023-05-24T03:28:43;99204.41;;;15.13;100.00
51759;BME280;66684;47.568;18.734;2023-05-24T03:31:10;99200.06;;;15.13;100.00
51759;BME280;66684;47.568;18.734;2023-05-24T03:33:37;99201.91;;;15.20;100.00
51759;BME280;66684;47.568;18.734;2023-05-24T03:36:04;99199.19;;;15.11;100.00
51759;BME280;66684;47.568;18.734;2023-05-24T03:38:30;99206.31;;;15.23;100.00
51759;BME280;66684;47.568;18.734;2023-05-24T03:40:58;99205.00;;;15.52;100.00
51759;BME280;66684;47.568;18.734;2023-05-24T03:43:24;99202.34;;;15.48;100.00
51759;BME280;66684;47.568;18.734;2023-05-24T03:45:50;99205.94;;;15.57;100.00
51759;BME280;66684;47.568;18.734;2023-05-24T03:48:16;99207.53;;;15.46;100.00
51759;BME280;66684;47.568;18.734;2023-05-24T03:50:46;99205.63;;;15.34;100.00
51759;BME280;66684;47.568;18.734;2023-05-24T03:53:11;99215.34;;;15.46;100.00
51759;BME280;66684;47.568;18.734;2023-05-24T03:55:37;99210.75;;;15.30;100.00
51759;BME280;66684;47.568;18.734;2023-05-24T03:58:03;99206.53;;;15.38;100.00
51759;BME280;66684;47.568;18.734;2023-05-24T04:00:29;99205.81;;;15.47;100.00
51759;BME280;66684;47.568;18.734;2023-05-24T04:02:55;99211.72;;;15.35;100.00
51759;BME280;66684;47.568;18.734;2023-05-24T04:05:21;99213.44;;;15.34;100.00
51759;BME280;66684;47.568;18.734;2023-05-24T04:07:51;99216.91;;;15.35;100.00
51759;BME280;66684;47.568;18.734;2023-05-24T04:10:18;99221.28;;;15.37;100.00
51759;BME280;66684;47.568;18.734;2023-05-24T04:12:44;99221.38;;;15.45;100.00
51759;BME280;66684;47.568;18.734;2023-05-24T04:15:10;99223.97;;;15.42;100.00
51759;BME280;66684;47.568;18.734;2023-05-24T04:17:43;99232.75;;;15.50;100.00
51759;BME280;66684;47.568;18.734;2023-05-24T04:20:10;99236.31;;;15.55;100.00
51759;BME280;66684;47.568;18.734;2023-05-24T04:22:37;99234.44;;;15.47;100.00
51759;BME280;66684;47.568;18.734;2023-05-24T04:25:04;99239.69;;;15.51;100.00
51759;BME280;66684;47.568;18.734;2023-05-24T04:27:31;99242.38;;;15.56;100.00
51759;BME280;66684;47.568;18.734;2023-05-24T04:29:57;99258.09;;;15.60;100.00
51759;BME280;66684;47.568;18.734;2023-05-24T04:32:23;99258.59;;;15.38;100.00
51759;BME280;66684;47.568;18.734;2023-05-24T04:34:49;99253.34;;;15.35;100.00
51759;BME280;66684;47.568;18.734;2023-05-24T04:37:17;99260.22;;;15.30;100.00
51759;BME280;66684;47.568;18.734;2023-05-24T04:39:44;99254.16;;;15.32;100.00
51759;BME280;66684;47.568;18.734;2023-05-24T04:42:10;99260.31;;;15.36;100.00
51759;BME280;66684;47.568;18.734;2023-05-24T04:44:39;99258.56;;;15.35;100.00
51759;BME280;66684;47.568;18.734;2023-05-24T04:47:05;99258.56;;;15.35;100.00
51759;BME280;66684;47.568;18.734;2023-05-24T04:49:31;99263.69;;;15.29;100.00
51759;BME280;66684;47.568;18.734;2023-05-24T04:51:57;99267.06;;;15.23;100.00
51759;BME280;66684;47.568;18.734;2023-05-24T04:54:23;99268.97;;;15.35;100.00
51759;BME280;66684;47.568;18.734;2023-05-24T04:56:49;99267.22;;;15.34;100.00
51759;BME280;66684;47.568;18.734;2023-05-24T04:59:15;99275.16;;;15.42;100.00
51759;BME280;66684;47.568;18.734;2023-05-24T05:01:40;99276.16;;;15.51;100.00
51759;BME280;66684;47.568;18.734;2023-05-24T05:04:06;99275.34;;;15.54;100.00
51759;BME280;66684;47.568;18.734;2023-05-24T05:06:32;99278.63;;;15.41;100.00
51759;BME280;66684;47.568;18.734;2023-05-24T05:09:04;99283.28;;;15.61;100.00
51759;BME280;66684;47.568;18.734;2023-05-24T05:11:30;99285.88;;;15.61;100.00
51759;BME280;66684;47.568;18.734;2023-05-24T05:13:56;99287.72;;;15.66;100.00
51759;BME280;66684;47.568;18.734;2023-05-24T05:16:22;99289.59;;;15.77;100.00
51759;BME280;66684;47.568;18.734;2023-05-24T05:18:48;99291.47;;;15.86;100.00
51759;BME280;66684;47.568;18.734;2023-05-24T05:21:14;99287.16;;;15.86;100.00
51759;BME280;66684;47.568;18.734;2023-05-24T05:23:40;99295.16;;;16.02;100.00
51759;BME280;66684;47.568;18.734;2023-05-24T05:26:06;99296.72;;;15.89;100.00
51759;BME280;66684;47.568;18.734;2023-05-24T05:28:32;99290.81;;;16.02;100.00
51759;BME280;66684;47.568;18.734;2023-05-24T05:30:58;99293.66;;;16.19;100.00
51759;BME280;66684;47.568;18.734;2023-05-24T05:33:24;99293.34;;;15.95;100.00
51759;BME280;66684;47.568;18.734;2023-05-24T05:35:50;99293.47;;;16.04;100.00
51759;BME280;66684;47.568;18.734;2023-05-24T05:38:16;99291.66;;;16.00;100.00
51759;BME280;66684;47.568;18.734;2023-05-24T05:40:42;99285.41;;;15.87;100.00
51759;BME280;66684;47.568;18.734;2023-05-24T05:43:08;99293.94;;;15.77;100.00
51759;BME280;66684;47.568;18.734;2023-05-24T05:45:34;99283.53;;;15.77;100.00
51759;BME280;66684;47.568;18.734;2023-05-24T05:48:00;99292.44;;;15.91;100.00
51759;BME280;66684;47.568;18.734;2023-05-24T05:50:26;99289.75;;;15.86;100.00
51759;BME280;66684;47.568;18.734;2023-05-24T05:52:52;99290.81;;;15.99;100.00
51759;BME280;66684;47.568;18.734;2023-05-24T05:55:17;99300.19;;;15.89;100.00
51759;BME280;66684;47.568;18.734;2023-05-24T05:57:43;99302.69;;;15.79;100.00
51759;BME280;66684;47.568;18.734;2023-05-24T06:00:09;99313.19;;;15.85;100.00
51759;BME280;66684;47.568;18.734;2023-05-24T06:02:36;99313.19;;;15.85;100.00
51759;BME280;66684;47.568;18.734;2023-05-24T06:05:01;99314.94;;;15.86;100.00
51759;BME280;66684;47.568;18.734;2023-05-24T06:07:27;99319.50;;;16.02;100.00
51759;BME280;66684;47.568;18.734;2023-05-24T06:09:53;99327.88;;;15.81;100.00
51759;BME280;66684;47.568;18.734;2023-05-24T06:12:19;99325.00;;;15.63;100.00
51759;BME280;66684;47.568;18.734;2023-05-24T06:14:45;99327.88;;;15.80;100.00
51759;BME280;66684;47.568;18.734;2023-05-24T06:17:12;99322.91;;;15.97;100.00
51759;BME280;66684;47.568;18.734;2023-05-24T06:19:41;99324.84;;;16.11;100.00
51759;BME280;66684;47.568;18.734;2023-05-24T06:22:08;99324.25;;;16.34;100.00
51759;BME280;66684;47.568;18.734;2023-05-24T06:24:34;99336.06;;;16.71;100.00
51759;BME280;66684;47.568;18.734;2023-05-24T06:27:01;99330.19;;;16.89;100.00
51759;BME280;66684;47.568;18.734;2023-05-24T06:29:27;99334.38;;;16.73;100.00
51759;BME280;66684;47.568;18.734;2023-05-24T06:31:53;99337.31;;;17.07;100.00
51759;BME280;66684;47.568;18.734;2023-05-24T06:34:19;99336.63;;;17.24;100.00
51759;BME280;66684;47.568;18.734;2023-05-24T06:36:48;99334.12;;;17.37;100.00
51759;BME280;66684;47.568;18.734;2023-05-24T06:39:15;99340.69;;;16.95;100.00
51759;BME280;66684;47.568;18.734;2023-05-24T06:41:42;99347.66;;;16.96;100.00
51759;BME280;66684;47.568;18.734;2023-05-24T06:44:09;99345.84;;;16.89;100.00
51759;BME280;66684;47.568;18.734;2023-05-24T06:46:35;99344.06;;;16.85;100.00
51759;BME280;66684;47.568;18.734;2023-05-24T06:49:01;99352.91;;;16.99;100.00
51759;BME280;66684;47.568;18.734;2023-05-24T06:51:26;99357.62;;;16.59;100.00
51759;BME280;66684;47.568;18.734;2023-05-24T06:53:52;99352.69;;;16.79;100.00
51759;BME280;66684;47.568;18.734;2023-05-24T06:56:18;99352.97;;;17.05;100.00
51759;BME280;66684;47.568;18.734;2023-05-24T06:58:44;99349.75;;;17.34;100.00
51759;BME280;66684;47.568;18.734;2023-05-24T07:01:10;99353.34;;;17.45;100.00
51759;BME280;66684;47.568;18.734;2023-05-24T07:03:36;99337.84;;;17.60;100.00
51759;BME280;66684;47.568;18.734;2023-05-24T07:06:02;99347.47;;;17.70;100.00
51759;BME280;66684;47.568;18.734;2023-05-24T07:08:28;99348.56;;;17.97;100.00
51759;BME280;66684;47.568;18.734;2023-05-24T07:10:54;99353.81;;;18.03;100.00
51759;BME280;66684;47.568;18.734;2023-05-24T07:13:21;99354.69;;;17.99;100.00
51759;BME280;66684;47.568;18.734;2023-05-24T07:15:47;99352.13;;;18.08;100.00
51759;BME280;66684;47.568;18.734;2023-05-24T07:18:13;99354.81;;;18.17;100.00
51759;BME280;66684;47.568;18.734;2023-05-24T07:20:39;99364.28;;;18.00;100.00
51759;BME280;66684;47.568;18.734;2023-05-24T07:23:05;99365.12;;;17.94;100.00
51759;BME280;66684;47.568;18.734;2023-05-24T07:25:32;99374.41;;;17.60;100.00
51759;BME280;66684;47.568;18.734;2023-05-24T07:28:01;99363.84;;;17.51;100.00
51759;BME280;66684;47.568;18.734;2023-05-24T07:30:27;99363.84;;;17.51;100.00
51759;BME280;66684;47.568;18.734;2023-05-24T07:32:53;99366.47;;;17.51;100.00
51759;BME280;66684;47.568;18.734;2023-05-24T07:35:19;99366.19;;;17.20;100.00
51759;BME280;66684;47.568;18.734;2023-05-24T07:37:45;99366.53;;;17.56;100.00
51759;BME280;66684;47.568;18.734;2023-05-24T07:40:12;99373.72;;;17.81;100.00
51759;BME280;66684;47.568;18.734;2023-05-24T07:42:38;99373.00;;;18.02;100.00
51759;BME280;66684;47.568;18.734;2023-05-24T07:45:06;99382.75;;;18.24;100.00
51759;BME280;66684;47.568;18.734;2023-05-24T07:47:33;99381.13;;;18.42;100.00
51759;BME280;66684;47.568;18.734;2023-05-24T07:49:59;99383.72;;;18.42;100.00
51759;BME280;66684;47.568;18.734;2023-05-24T07:52:25;99389.06;;;18.66;100.00
51759;BME280;66684;47.568;18.734;2023-05-24T07:54:51;99384.75;;;18.68;100.00
51759;BME280;66684;47.568;18.734;2023-05-24T07:57:18;99380.41;;;18.70;100.00
51759;BME280;66684;47.568;18.734;2023-05-24T07:59:44;99393.50;;;18.78;100.00
51759;BME280;66684;47.568;18.734;2023-05-24T08:02:10;99397.72;;;18.53;100.00
51759;BME280;66684;47.568;18.734;2023-05-24T08:04:40;99398.28;;;18.00;100.00
51759;BME280;66684;47.568;18.734;2023-05-24T08:07:06;99407.84;;;17.98;100.00
51759;BME280;66684;47.568;18.734;2023-05-24T08:09:32;99403.34;;;17.80;100.00
51759;BME280;66684;47.568;18.734;2023-05-24T08:12:04;99399.06;;;17.90;100.00
51759;BME280;66684;47.568;18.734;2023-05-24T08:14:30;99401.13;;;18.37;100.00
51759;BME280;66684;47.568;18.734;2023-05-24T08:16:56;99396.12;;;18.73;100.00
51759;BME280;66684;47.568;18.734;2023-05-24T08:19:22;99397.00;;;18.77;100.00
51759;BME280;66684;47.568;18.734;2023-05-24T08:21:48;99399.47;;;18.54;100.00
51759;BME280;66684;47.568;18.734;2023-05-24T08:24:14;99397.84;;;18.68;100.00
51759;BME280;66684;47.568;18.734;2023-05-24T08:26:40;99394.53;;;19.21;100.00
51759;BME280;66684;47.568;18.734;2023-05-24T08:29:08;99407.69;;;19.53;100.00
51759;BME280;66684;47.568;18.734;2023-05-24T08:31:34;99405.87;;;19.19;100.00
51759;BME280;66684;47.568;18.734;2023-05-24T08:34:00;99422.41;;;19.10;100.00
51759;BME280;66684;47.568;18.734;2023-05-24T08:36:27;99416.38;;;19.17;100.00
51759;BME280;66684;47.568;18.734;2023-05-24T08:38:53;99429.44;;;19.11;100.00
51759;BME280;66684;47.568;18.734;2023-05-24T08:41:18;99425.03;;;19.01;100.00
51759;BME280;66684;47.568;18.734;2023-05-24T08:43:45;99423.25;;;18.94;100.00
51759;BME280;66684;47.568;18.734;2023-05-24T08:46:13;99419.53;;;18.50;100.00
51759;BME280;66684;47.568;18.734;2023-05-24T08:48:46;99420.34;;;18.42;100.00
51759;BME280;66684;47.568;18.734;2023-05-24T08:51:16;99424.13;;;18.96;100.00
51759;BME280;66684;47.568;18.734;2023-05-24T08:53:45;99426.78;;;19.03;100.00
51759;BME280;66684;47.568;18.734;2023-05-24T08:56:16;99428.50;;;18.97;100.00
51759;BME280;66684;47.568;18.734;2023-05-24T08:58:42;99427.66;;;19.08;100.00
51759;BME280;66684;47.568;18.734;2023-05-24T09:01:13;99432.06;;;19.14;100.00
51759;BME280;66684;47.568;18.734;2023-05-24T09:03:40;99435.59;;;19.40;100.00
51759;BME280;66684;47.568;18.734;2023-05-24T09:06:08;99438.25;;;19.47;100.00
51759;BME280;66684;47.568;18.734;2023-05-24T09:08:35;99432.13;;;19.41;100.00
51759;BME280;66684;47.568;18.734;2023-05-24T09:11:04;99434.81;;;19.60;100.00
51759;BME280;66684;47.568;18.734;2023-05-24T09:13:32;99439.09;;;19.39;100.00
51759;BME280;66684;47.568;18.734;2023-05-24T09:16:00;99438.28;;;19.50;100.00
51759;BME280;66684;47.568;18.734;2023-05-24T09:18:26;99440.97;;;19.92;100.00
51759;BME280;66684;47.568;18.734;2023-05-24T09:20:52;99445.25;;;19.45;100.00
51759;BME280;66684;47.568;18.734;2023-05-24T09:23:18;99442.69;;;19.71;100.00
51759;BME280;66684;47.568;18.734;2023-05-24T09:25:45;99441.84;;;19.88;100.00
51759;BME280;66684;47.568;18.734;2023-05-24T09:28:13;99445.34;;;20.12;100.00
51759;BME280;66684;47.568;18.734;2023-05-24T09:30:45;99437.47;;;19.95;100.00
51759;BME280;66684;47.568;18.734;2023-05-24T09:33:21;99445.34;;;20.00;100.00
51759;BME280;66684;47.568;18.734;2023-05-24T09:35:47;99443.56;;;19.83;100.00
51759;BME280;66684;47.568;18.734;2023-05-24T09:38:17;99438.34;;;20.02;100.00
51759;BME280;66684;47.568;18.734;2023-05-24T09:40:44;99445.34;;;20.06;100.00
51759;BME280;66684;47.568;18.734;2023-05-24T09:43:10;99436.56;;;20.31;100.00
51759;BME280;66684;47.568;18.734;2023-05-24T09:45:46;99429.59;;;20.03;100.00
51759;BME280;66684;47.568;18.734;2023-05-24T09:48:12;99436.59;;;20.07;100.00
51759;BME280;66684;47.568;18.734;2023-05-24T09:50:39;99433.97;;;19.81;100.00
51759;BME280;66684;47.568;18.734;2023-05-24T09:53:04;99425.19;;;20.05;98.80
51759;BME280;66684;47.568;18.734;2023-05-24T09:55:35;99430.47;;;20.18;100.00
51759;BME280;66684;47.568;18.734;2023-05-24T09:58:06;99420.81;;;20.46;99.37
51759;BME280;66684;47.568;18.734;2023-05-24T10:00:38;99425.12;;;20.72;100.00
51759;BME280;66684;47.568;18.734;2023-05-24T10:03:07;99432.09;;;20.84;96.76
51759;BME280;66684;47.568;18.734;2023-05-24T10:05:34;99440.81;;;20.95;97.57
51759;BME280;66684;47.568;18.734;2023-05-24T10:08:01;99437.31;;;20.85;96.03
51759;BME280;66684;47.568;18.734;2023-05-24T10:10:31;99431.31;;;20.56;91.56
51759;BME280;66684;47.568;18.734;2023-05-24T10:12:58;99434.75;;;20.73;93.04
51759;BME280;66684;47.568;18.734;2023-05-24T10:15:25;99430.37;;;20.77;90.73
51759;BME280;66684;47.568;18.734;2023-05-24T10:17:55;99432.00;;;20.99;91.78
51759;BME280;66684;47.568;18.734;2023-05-24T10:20:24;99439.91;;;20.96;94.79
51759;BME280;66684;47.568;18.734;2023-05-24T10:22:54;99438.13;;;21.09;86.56
51759;BME280;66684;47.568;18.734;2023-05-24T10:25:23;99446.91;;;21.01;86.29
51759;BME280;66684;47.568;18.734;2023-05-24T10:27:55;99432.75;;;21.30;91.38
51759;BME280;66684;47.568;18.734;2023-05-24T10:30:35;99445.13;;;21.07;90.14
51759;BME280;66684;47.568;18.734;2023-05-24T10:33:04;99428.34;;;21.40;92.42
51759;BME280;66684;47.568;18.734;2023-05-24T10:35:32;99416.94;;;21.42;78.92
51759;BME280;66684;47.568;18.734;2023-05-24T10:38:04;99428.16;;;21.66;78.05
51759;BME280;66684;47.568;18.734;2023-05-24T10:40:31;99423.81;;;21.65;80.95
51759;BME280;66684;47.568;18.734;2023-05-24T10:42:57;99425.72;;;21.35;85.13
51759;BME280;66684;47.568;18.734;2023-05-24T10:47:51;99429.19;;;21.43;79.62
51759;BME280;66684;47.568;18.734;2023-05-24T10:50:22;99417.88;;;21.31;74.59
51759;BME280;66684;47.568;18.734;2023-05-24T10:52:49;99416.91;;;21.45;79.09
51759;BME280;66684;47.568;18.734;2023-05-24T10:55:18;99426.66;;;21.22;79.76
51759;BME280;66684;47.568;18.734;2023-05-24T10:57:44;99418.59;;;21.55;75.18
51759;BME280;66684;47.568;18.734;2023-05-24T11:03:08;99421.94;;;21.82;78.58
51759;BME280;66684;47.568;18.734;2023-05-24T11:08:39;99423.75;;;21.71;78.48
51759;BME280;66684;47.568;18.734;2023-05-24T11:11:11;99424.78;;;21.50;77.89
51759;BME280;66684;47.568;18.734;2023-05-24T11:13:38;99421.13;;;21.71;78.08
51759;BME280;66684;47.568;18.734;2023-05-24T11:16:05;99426.53;;;21.48;79.85
51759;BME280;66684;47.568;18.734;2023-05-24T11:18:31;99419.38;;;21.71;77.62
51759;BME280;66684;47.568;18.734;2023-05-24T11:21:04;99420.47;;;21.38;77.30
51759;BME280;66684;47.568;18.734;2023-05-24T11:23:31;99414.09;;;21.71;75.84
51759;BME280;66684;47.568;18.734;2023-05-24T11:25:57;99416.56;;;21.91;74.43
51759;BME280;66684;47.568;18.734;2023-05-24T11:28:23;99426.97;;;22.10;74.17
51759;BME280;66684;47.568;18.734;2023-05-24T11:30:49;99414.87;;;21.84;74.37
51759;BME280;66684;47.568;18.734;2023-05-24T11:33:20;99423.72;;;21.74;78.43
51759;BME280;66684;47.568;18.734;2023-05-24T11:35:52;99411.53;;;21.65;74.46
51759;BME280;66684;47.568;18.734;2023-05-24T11:38:18;99403.44;;;21.87;71.10
51759;BME280;66684;47.568;18.734;2023-05-24T11:40:47;99409.53;;;21.93;70.83
51759;BME280;66684;47.568;18.734;2023-05-24T11:43:16;99415.22;;;21.35;74.59
51759;BME280;66684;47.568;18.734;2023-05-24T11:45:44;99407.19;;;21.60;73.42
51759;BME280;66684;47.568;18.734;2023-05-24T11:48:10;99412.19;;;21.92;73.25
51759;BME280;66684;47.568;18.734;2023-05-24T11:50:41;99406.87;;;21.98;69.70
51759;BME280;66684;47.568;18.734;2023-05-24T11:53:11;99415.09;;;21.53;69.72
51759;BME280;66684;47.568;18.734;2023-05-24T11:55:38;99411.22;;;22.03;69.06
51759;BME280;66684;47.568;18.734;2023-05-24T11:58:18;99397.41;;;21.77;69.48
51759;BME280;66684;47.568;18.734;2023-05-24T12:00:48;99399.41;;;22.47;67.57
51759;BME280;66684;47.568;18.734;2023-05-24T12:03:14;99390.59;;;22.51;71.63
51759;BME280;66684;47.568;18.734;2023-05-24T12:05:42;99397.84;;;22.28;69.28
51759;BME280;66684;47.568;18.734;2023-05-24T12:08:10;99406.84;;;22.02;68.99
51759;BME280;66684;47.568;18.734;2023-05-24T12:10:40;99395.34;;;22.16;69.39
51759;BME280;66684;47.568;18.734;2023-05-24T12:13:27;99396.78;;;22.47;67.37
51759;BME280;66684;47.568;18.734;2023-05-24T12:15:54;99403.97;;;22.31;66.36
51759;BME280;66684;47.568;18.734;2023-05-24T12:18:22;99400.22;;;22.52;67.41
51759;BME280;66684;47.568;18.734;2023-05-24T12:20:49;99410.12;;;22.29;67.13
51759;BME280;66684;47.568;18.734;2023-05-24T12:23:18;99404.66;;;21.41;69.26
51759;BME280;66684;47.568;18.734;2023-05-24T12:25:44;99392.09;;;21.83;72.49
51759;BME280;66684;47.568;18.734;2023-05-24T12:28:11;99400.44;;;22.34;65.00
51759;BME280;66684;47.568;18.734;2023-05-24T12:30:37;99401.53;;;22.08;67.74
51759;BME280;66684;47.568;18.734;2023-05-24T12:33:09;99397.88;;;22.26;69.64
51759;BME280;66684;47.568;18.734;2023-05-24T12:35:36;99393.25;;;22.48;65.11
51759;BME280;66684;47.568;18.734;2023-05-24T12:38:02;99393.72;;;22.84;65.21
51759;BME280;66684;47.568;18.734;2023-05-24T12:40:32;99381.03;;;22.41;63.43
51759;BME280;66684;47.568;18.734;2023-05-24T12:42:58;99388.56;;;22.73;65.42
51759;BME280;66684;47.568;18.734;2023-05-24T12:45:24;99382.00;;;22.31;64.17
51759;BME280;66684;47.568;18.734;2023-05-24T12:47:54;99386.41;;;22.32;67.71
51759;BME280;66684;47.568;18.734;2023-05-24T12:50:24;99382.41;;;22.76;62.44
51759;BME280;66684;47.568;18.734;2023-05-24T12:52:51;99385.97;;;22.72;62.22
51759;BME280;66684;47.568;18.734;2023-05-24T12:55:22;99377.81;;;22.93;61.49
51759;BME280;66684;47.568;18.734;2023-05-24T12:57:48;99372.25;;;23.14;58.39
51759;BME280;66684;47.568;18.734;2023-05-24T13:00:27;99366.81;;;23.27;59.80
51759;BME280;66684;47.568;18.734;2023-05-24T13:02:55;99366.19;;;23.09;62.84
51759;BME280;66684;47.568;18.734;2023-05-24T13:05:23;99364.69;;;22.90;61.97
51759;BME280;66684;47.568;18.734;2023-05-24T13:07:50;99365.31;;;22.35;65.11